sensor_id;sensor_type;location;lat;lon;timestamp;P1;durP1;ratioP1;P2;durP2;ratioP2
53674;SDS011;39574;50.534;8.500;2023-02-21T00:03:47;41.6;;;22.8;;
53674;SDS011;39574;50.534;8.500;2023-02-21T00:08:46;42.4;;;22.9;;
53674;SDS011;39574;50.534;8.500;2023-02-21T00:13:45;42.7;;;23.3;;
53674;SDS011;39574;50.534;8.500;2023-02-21T00:18:45;42.8;;;24.0;;
53674;SDS011;39574;50.534;8.500;2023-02-21T00:23:43;42.9;;;23.8;;
53674;SDS011;39574;50.534;8.500;2023-02-21T00:28:42;43.0;;;23.9;;
53674;SDS011;39574;50.534;8.500;2023-02-21T00:33:41;42.2;;;23.8;;
53674;SDS011;39574;50.534;8.500;2023-02-21T00:38:40;41.0;;;23.3;;
53674;SDS011;39574;50.534;8.500;2023-02-21T00:43:39;41.2;;;23.4;;
53674;SDS011;39574;50.534;8.500;2023-02-21T00:53:37;43.8;;;23.9;;
53674;SDS011;39574;50.534;8.500;2023-02-21T00:58:36;43.9;;;24.0;;
53674;SDS011;39574;50.534;8.500;2023-02-21T01:03:35;45.7;;;25.1;;
53674;SDS011;39574;50.534;8.500;2023-02-21T01:08:34;46.1;;;25.5;;
53674;SDS011;39574;50.534;8.500;2023-02-21T01:13:33;49.0;;;27.0;;
53674;SDS011;39574;50.534;8.500;2023-02-21T01:18:32;49.4;;;27.4;;
53674;SDS011;39574;50.534;8.500;2023-02-21T01:28:29;52.0;;;28.4;;
53674;SDS011;39574;50.534;8.500;2023-02-21T01:33:35;53.2;;;28.9;;
53674;SDS011;39574;50.534;8.500;2023-02-21T01:38:27;53.9;;;28.9;;
53674;SDS011;39574;50.534;8.500;2023-02-21T01:43:27;53.7;;;28.8;;
53674;SDS011;39574;50.534;8.500;2023-02-21T01:48:25;56.2;;;29.6;;
53674;SDS011;39574;50.534;8.500;2023-02-21T02:03:24;55.4;;;29.3;;
53674;SDS011;39574;50.534;8.500;2023-02-21T02:08:22;54.7;;;28.7;;
53674;SDS011;39574;50.534;8.500;2023-02-21T02:13:25;52.8;;;27.7;;
53674;SDS011;39574;50.534;8.500;2023-02-21T02:18:24;50.8;;;26.6;;
53674;SDS011;39574;50.534;8.500;2023-02-21T02:23:27;49.7;;;26.0;;
53674;SDS011;39574;50.534;8.500;2023-02-21T02:28:24;47.3;;;25.1;;
53674;SDS011;39574;50.534;8.500;2023-02-21T02:33:28;49.3;;;26.0;;
53674;SDS011;39574;50.534;8.500;2023-02-21T02:38:16;50.1;;;26.5;;
53674;SDS011;39574;50.534;8.500;2023-02-21T02:43:14;52.2;;;28.0;;
53674;SDS011;39574;50.534;8.500;2023-02-21T02:48:13;52.8;;;27.8;;
53674;SDS011;39574;50.534;8.500;2023-02-21T02:53:11;52.6;;;27.6;;
53674;SDS011;39574;50.534;8.500;2023-02-21T02:58:10;52.9;;;27.3;;
53674;SDS011;39574;50.534;8.500;2023-02-21T03:03:22;49.5;;;25.8;;
53674;SDS011;39574;50.534;8.500;2023-02-21T03:08:11;47.3;;;24.9;;
53674;SDS011;39574;50.534;8.500;2023-02-21T03:13:10;45.9;;;24.4;;
53674;SDS011;39574;50.534;8.500;2023-02-21T03:18:08;46.6;;;24.9;;
53674;SDS011;39574;50.534;8.500;2023-02-21T03:23:05;49.3;;;25.7;;
53674;SDS011;39574;50.534;8.500;2023-02-21T03:28:04;49.5;;;25.7;;
53674;SDS011;39574;50.534;8.500;2023-02-21T03:33:03;50.0;;;25.1;;
53674;SDS011;39574;50.534;8.500;2023-02-21T03:38:02;49.6;;;24.7;;
53674;SDS011;39574;50.534;8.500;2023-02-21T03:43:02;49.0;;;24.6;;
53674;SDS011;39574;50.534;8.500;2023-02-21T03:47:59;47.7;;;23.7;;
53674;SDS011;39574;50.534;8.500;2023-02-21T03:52:58;45.9;;;22.9;;
53674;SDS011;39574;50.534;8.500;2023-02-21T03:57:57;44.1;;;22.3;;
53674;SDS011;39574;50.534;8.500;2023-02-21T04:02:56;42.9;;;21.9;;
53674;SDS011;39574;50.534;8.500;2023-02-21T04:07:56;43.7;;;22.3;;
53674;SDS011;39574;50.534;8.500;2023-02-21T04:12:54;44.0;;;22.7;;
53674;SDS011;39574;50.534;8.500;2023-02-21T04:17:53;43.6;;;22.3;;
53674;SDS011;39574;50.534;8.500;2023-02-21T04:22:52;43.3;;;21.9;;
53674;SDS011;39574;50.534;8.500;2023-02-21T04:27:51;40.9;;;20.9;;
53674;SDS011;39574;50.534;8.500;2023-02-21T04:32:50;40.8;;;20.8;;
53674;SDS011;39574;50.534;8.500;2023-02-21T04:37:49;41.1;;;21.0;;
53674;SDS011;39574;50.534;8.500;2023-02-21T04:42:47;41.3;;;21.0;;
53674;SDS011;39574;50.534;8.500;2023-02-21T04:47:46;39.5;;;20.5;;
53674;SDS011;39574;50.534;8.500;2023-02-21T04:52:46;40.3;;;20.7;;
53674;SDS011;39574;50.534;8.500;2023-02-21T04:57:44;41.6;;;20.7;;
53674;SDS011;39574;50.534;8.500;2023-02-21T05:02:43;40.4;;;20.4;;
53674;SDS011;39574;50.534;8.500;2023-02-21T05:07:42;40.2;;;20.5;;
53674;SDS011;39574;50.534;8.500;2023-02-21T05:12:41;40.6;;;20.7;;
53674;SDS011;39574;50.534;8.500;2023-02-21T05:17:40;39.2;;;20.2;;
53674;SDS011;39574;50.534;8.500;2023-02-21T05:22:40;36.8;;;19.4;;
53674;SDS011;39574;50.534;8.500;2023-02-21T05:27:38;37.7;;;19.6;;
53674;SDS011;39574;50.534;8.500;2023-02-21T05:32:37;37.9;;;19.4;;
53674;SDS011;39574;50.534;8.500;2023-02-21T05:37:36;37.0;;;19.0;;
53674;SDS011;39574;50.534;8.500;2023-02-21T05:42:35;38.4;;;19.3;;
53674;SDS011;39574;50.534;8.500;2023-02-21T05:47:34;38.5;;;19.0;;
53674;SDS011;39574;50.534;8.500;2023-02-21T05:52:33;37.8;;;18.7;;
53674;SDS011;39574;50.534;8.500;2023-02-21T05:57:36;35.9;;;17.8;;
53674;SDS011;39574;50.534;8.500;2023-02-21T06:02:30;33.1;;;17.0;;
53674;SDS011;39574;50.534;8.500;2023-02-21T06:07:30;31.9;;;16.5;;
53674;SDS011;39574;50.534;8.500;2023-02-21T06:12:28;31.2;;;16.2;;
53674;SDS011;39574;50.534;8.500;2023-02-21T06:17:28;31.8;;;16.2;;
53674;SDS011;39574;50.534;8.500;2023-02-21T06:22:27;30.6;;;15.7;;
53674;SDS011;39574;50.534;8.500;2023-02-21T06:27:26;28.5;;;15.0;;
53674;SDS011;39574;50.534;8.500;2023-02-21T06:32:25;29.4;;;15.1;;
53674;SDS011;39574;50.534;8.500;2023-02-21T06:37:23;29.3;;;14.5;;
53674;SDS011;39574;50.534;8.500;2023-02-21T06:42:22;28.6;;;14.2;;
53674;SDS011;39574;50.534;8.500;2023-02-21T06:47:21;28.2;;;14.4;;
53674;SDS011;39574;50.534;8.500;2023-02-21T06:52:20;29.8;;;15.3;;
53674;SDS011;39574;50.534;8.500;2023-02-21T06:57:19;28.8;;;14.9;;
53674;SDS011;39574;50.534;8.500;2023-02-21T07:02:18;28.9;;;15.1;;
53674;SDS011;39574;50.534;8.500;2023-02-21T07:07:17;28.5;;;15.4;;
53674;SDS011;39574;50.534;8.500;2023-02-21T07:12:16;29.0;;;15.0;;
53674;SDS011;39574;50.534;8.500;2023-02-21T07:17:14;27.6;;;14.2;;
53674;SDS011;39574;50.534;8.500;2023-02-21T07:22:13;27.1;;;13.9;;
53674;SDS011;39574;50.534;8.500;2023-02-21T07:27:13;26.0;;;13.4;;
53674;SDS011;39574;50.534;8.500;2023-02-21T07:37:10;24.2;;;12.5;;
53674;SDS011;39574;50.534;8.500;2023-02-21T07:42:09;25.0;;;13.4;;
53674;SDS011;39574;50.534;8.500;2023-02-21T07:47:08;26.4;;;13.5;;
53674;SDS011;39574;50.534;8.500;2023-02-21T07:52:08;27.9;;;13.5;;
53674;SDS011;39574;50.534;8.500;2023-02-21T07:57:06;27.0;;;13.2;;
53674;SDS011;39574;50.534;8.500;2023-02-21T08:02:05;27.8;;;13.8;;
53674;SDS011;39574;50.534;8.500;2023-02-21T08:07:04;27.5;;;14.1;;
53674;SDS011;39574;50.534;8.500;2023-02-21T08:12:03;27.8;;;14.3;;
53674;SDS011;39574;50.534;8.500;2023-02-21T08:17:02;27.7;;;14.6;;
53674;SDS011;39574;50.534;8.500;2023-02-21T08:22:01;29.7;;;14.9;;
53674;SDS011;39574;50.534;8.500;2023-02-21T08:27:00;29.6;;;15.0;;
53674;SDS011;39574;50.534;8.500;2023-02-21T08:31:59;28.8;;;15.0;;
53674;SDS011;39574;50.534;8.500;2023-02-21T08:36:58;28.6;;;14.7;;
53674;SDS011;39574;50.534;8.500;2023-02-21T08:41:57;27.1;;;14.3;;
53674;SDS011;39574;50.534;8.500;2023-02-21T08:46:56;27.3;;;14.1;;
53674;SDS011;39574;50.534;8.500;2023-02-21T08:51:54;27.6;;;14.3;;
53674;SDS011;39574;50.534;8.500;2023-02-21T08:56:53;27.0;;;14.4;;
53674;SDS011;39574;50.534;8.500;2023-02-21T09:01:53;27.5;;;14.8;;
53674;SDS011;39574;50.534;8.500;2023-02-21T09:06:52;26.2;;;14.3;;
53674;SDS011;39574;50.534;8.500;2023-02-21T09:11:51;26.0;;;14.1;;
53674;SDS011;39574;50.534;8.500;2023-02-21T09:16:50;26.7;;;14.5;;
53674;SDS011;39574;50.534;8.500;2023-02-21T09:21:49;27.6;;;15.1;;
53674;SDS011;39574;50.534;8.500;2023-02-21T09:26:48;28.5;;;15.4;;
53674;SDS011;39574;50.534;8.500;2023-02-21T09:31:46;28.8;;;15.6;;
53674;SDS011;39574;50.534;8.500;2023-02-21T09:36:47;28.7;;;15.1;;
53674;SDS011;39574;50.534;8.500;2023-02-21T09:41:44;28.1;;;15.0;;
53674;SDS011;39574;50.534;8.500;2023-02-21T09:46:44;28.0;;;14.5;;
53674;SDS011;39574;50.534;8.500;2023-02-21T09:51:43;28.2;;;14.9;;
53674;SDS011;39574;50.534;8.500;2023-02-21T09:56:42;27.6;;;14.5;;
53674;SDS011;39574;50.534;8.500;2023-02-21T10:01:44;27.7;;;13.9;;
53674;SDS011;39574;50.534;8.500;2023-02-21T10:06:42;26.6;;;13.8;;
53674;SDS011;39574;50.534;8.500;2023-02-21T10:11:42;26.6;;;14.1;;
53674;SDS011;39574;50.534;8.500;2023-02-21T10:16:39;25.3;;;13.5;;
53674;SDS011;39574;50.534;8.500;2023-02-21T10:21:38;23.9;;;13.0;;
53674;SDS011;39574;50.534;8.500;2023-02-21T10:26:37;23.7;;;12.9;;
53674;SDS011;39574;50.534;8.500;2023-02-21T10:31:35;23.9;;;12.9;;
53674;SDS011;39574;50.534;8.500;2023-02-21T10:41:34;23.3;;;12.4;;
53674;SDS011;39574;50.534;8.500;2023-02-21T10:46:32;24.3;;;12.5;;
53674;SDS011;39574;50.534;8.500;2023-02-21T10:51:32;21.9;;;11.8;;
53674;SDS011;39574;50.534;8.500;2023-02-21T10:56:30;20.7;;;11.0;;
53674;SDS011;39574;50.534;8.500;2023-02-21T11:01:31;20.2;;;10.7;;
53674;SDS011;39574;50.534;8.500;2023-02-21T11:06:31;19.3;;;10.6;;
53674;SDS011;39574;50.534;8.500;2023-02-21T11:11:31;19.3;;;10.6;;
53674;SDS011;39574;50.534;8.500;2023-02-21T11:16:26;19.3;;;10.6;;
53674;SDS011;39574;50.534;8.500;2023-02-21T11:21:26;18.8;;;10.4;;
53674;SDS011;39574;50.534;8.500;2023-02-21T11:26:25;18.7;;;10.1;;
53674;SDS011;39574;50.534;8.500;2023-02-21T11:31:26;17.3;;;9.6;;
53674;SDS011;39574;50.534;8.500;2023-02-21T11:36:25;16.6;;;9.3;;
53674;SDS011;39574;50.534;8.500;2023-02-21T11:41:25;17.6;;;9.3;;
53674;SDS011;39574;50.534;8.500;2023-02-21T11:51:25;12.7;;;7.6;;
53674;SDS011;39574;50.534;8.500;2023-02-21T11:56:25;13.6;;;7.8;;
53674;SDS011;39574;50.534;8.500;2023-02-21T12:01:21;13.6;;;7.9;;
53674;SDS011;39574;50.534;8.500;2023-02-21T12:06:20;13.1;;;7.6;;
53674;SDS011;39574;50.534;8.500;2023-02-21T12:11:21;14.6;;;7.6;;
53674;SDS011;39574;50.534;8.500;2023-02-21T12:16:19;14.1;;;7.5;;
53674;SDS011;39574;50.534;8.500;2023-02-21T12:21:35;13.8;;;7.3;;
53674;SDS011;39574;50.534;8.500;2023-02-21T12:26:20;12.2;;;6.8;;
53674;SDS011;39574;50.534;8.500;2023-02-21T12:31:19;11.9;;;6.8;;
53674;SDS011;39574;50.534;8.500;2023-02-21T12:36:17;12.0;;;6.9;;
53674;SDS011;39574;50.534;8.500;2023-02-21T12:41:18;11.1;;;6.8;;
53674;SDS011;39574;50.534;8.500;2023-02-21T12:46:15;10.7;;;6.7;;
53674;SDS011;39574;50.534;8.500;2023-02-21T12:51:14;9.6;;;6.3;;
53674;SDS011;39574;50.534;8.500;2023-02-21T12:56:14;9.0;;;5.8;;
53674;SDS011;39574;50.534;8.500;2023-02-21T13:01:13;9.0;;;5.5;;
53674;SDS011;39574;50.534;8.500;2023-02-21T13:06:13;8.4;;;5.3;;
53674;SDS011;39574;50.534;8.500;2023-02-21T13:11:11;7.8;;;5.0;;
53674;SDS011;39574;50.534;8.500;2023-02-21T13:16:10;8.1;;;4.9;;
53674;SDS011;39574;50.534;8.500;2023-02-21T13:21:12;7.8;;;4.9;;
53674;SDS011;39574;50.534;8.500;2023-02-21T13:26:15;7.6;;;4.8;;
53674;SDS011;39574;50.534;8.500;2023-02-21T13:31:17;8.6;;;5.0;;
53674;SDS011;39574;50.534;8.500;2023-02-21T13:36:17;8.3;;;4.8;;
53674;SDS011;39574;50.534;8.500;2023-02-21T13:41:08;7.7;;;4.7;;
53674;SDS011;39574;50.534;8.500;2023-02-21T13:46:22;7.3;;;4.5;;
53674;SDS011;39574;50.534;8.500;2023-02-21T13:51:06;6.7;;;4.3;;
53674;SDS011;39574;50.534;8.500;2023-02-21T13:56:14;7.0;;;4.2;;
53674;SDS011;39574;50.534;8.500;2023-02-21T14:01:12;6.9;;;4.2;;
53674;SDS011;39574;50.534;8.500;2023-02-21T14:06:36;7.3;;;4.5;;
53674;SDS011;39574;50.534;8.500;2023-02-21T14:11:10;8.3;;;5.2;;
53674;SDS011;39574;50.534;8.500;2023-02-21T14:16:07;7.9;;;5.0;;
53674;SDS011;39574;50.534;8.500;2023-02-21T14:21:04;11.9;;;5.1;;
53674;SDS011;39574;50.534;8.500;2023-02-21T14:26:03;10.9;;;5.3;;
53674;SDS011;39574;50.534;8.500;2023-02-21T14:31:02;10.0;;;5.3;;
53674;SDS011;39574;50.534;8.500;2023-02-21T14:36:03;10.2;;;5.6;;
53674;SDS011;39574;50.534;8.500;2023-02-21T14:41:04;10.3;;;6.0;;
53674;SDS011;39574;50.534;8.500;2023-02-21T14:46:09;10.0;;;5.9;;
53674;SDS011;39574;50.534;8.500;2023-02-21T14:51:05;9.7;;;6.0;;
53674;SDS011;39574;50.534;8.500;2023-02-21T14:56:02;9.0;;;6.0;;
53674;SDS011;39574;50.534;8.500;2023-02-21T15:01:02;9.7;;;6.2;;
53674;SDS011;39574;50.534;8.500;2023-02-21T15:05:59;10.1;;;6.2;;
53674;SDS011;39574;50.534;8.500;2023-02-21T15:10:59;9.6;;;6.0;;
53674;SDS011;39574;50.534;8.500;2023-02-21T15:15:58;9.8;;;5.7;;
53674;SDS011;39574;50.534;8.500;2023-02-21T15:21:02;10.4;;;6.2;;
53674;SDS011;39574;50.534;8.500;2023-02-21T15:25:58;10.6;;;6.6;;
53674;SDS011;39574;50.534;8.500;2023-02-21T15:30:58;11.3;;;7.0;;
53674;SDS011;39574;50.534;8.500;2023-02-21T15:35:57;11.6;;;6.8;;
53674;SDS011;39574;50.534;8.500;2023-02-21T15:40:57;11.5;;;6.8;;
53674;SDS011;39574;50.534;8.500;2023-02-21T15:45:56;11.7;;;6.7;;
53674;SDS011;39574;50.534;8.500;2023-02-21T15:50:58;10.9;;;6.6;;
53674;SDS011;39574;50.534;8.500;2023-02-21T15:56:07;10.8;;;6.4;;
53674;SDS011;39574;50.534;8.500;2023-02-21T16:01:02;10.5;;;6.6;;
53674;SDS011;39574;50.534;8.500;2023-02-21T16:05:54;10.4;;;6.6;;
53674;SDS011;39574;50.534;8.500;2023-02-21T16:10:58;11.0;;;6.5;;
53674;SDS011;39574;50.534;8.500;2023-02-21T16:15:53;10.1;;;6.3;;
53674;SDS011;39574;50.534;8.500;2023-02-21T16:20:57;10.5;;;6.2;;
53674;SDS011;39574;50.534;8.500;2023-02-21T16:25:53;9.8;;;6.0;;
53674;SDS011;39574;50.534;8.500;2023-02-21T16:30:51;9.1;;;5.7;;
53674;SDS011;39574;50.534;8.500;2023-02-21T16:35:50;9.4;;;5.6;;
53674;SDS011;39574;50.534;8.500;2023-02-21T16:40:50;9.7;;;5.5;;
53674;SDS011;39574;50.534;8.500;2023-02-21T16:45:51;9.4;;;5.3;;
53674;SDS011;39574;50.534;8.500;2023-02-21T16:50:49;9.1;;;5.0;;
53674;SDS011;39574;50.534;8.500;2023-02-21T16:55:48;13.7;;;8.3;;
53674;SDS011;39574;50.534;8.500;2023-02-21T17:00:47;15.9;;;9.6;;
53674;SDS011;39574;50.534;8.500;2023-02-21T17:05:46;15.3;;;9.2;;
53674;SDS011;39574;50.534;8.500;2023-02-21T17:10:45;14.0;;;8.4;;
53674;SDS011;39574;50.534;8.500;2023-02-21T17:15:44;13.4;;;7.9;;
53674;SDS011;39574;50.534;8.500;2023-02-21T17:20:44;17.5;;;10.1;;
53674;SDS011;39574;50.534;8.500;2023-02-21T17:25:42;19.1;;;11.3;;
53674;SDS011;39574;50.534;8.500;2023-02-21T17:30:42;17.5;;;10.5;;
53674;SDS011;39574;50.534;8.500;2023-02-21T17:35:41;14.9;;;9.1;;
53674;SDS011;39574;50.534;8.500;2023-02-21T17:40:40;15.5;;;8.7;;
53674;SDS011;39574;50.534;8.500;2023-02-21T17:45:43;14.5;;;8.1;;
53674;SDS011;39574;50.534;8.500;2023-02-21T17:50:38;14.5;;;8.0;;
53674;SDS011;39574;50.534;8.500;2023-02-21T17:55:37;15.6;;;8.4;;
53674;SDS011;39574;50.534;8.500;2023-02-21T18:00:36;21.3;;;11.6;;
53674;SDS011;39574;50.534;8.500;2023-02-21T18:05:35;21.1;;;12.1;;
53674;SDS011;39574;50.534;8.500;2023-02-21T18:10:34;17.8;;;10.0;;
53674;SDS011;39574;50.534;8.500;2023-02-21T18:15:33;23.0;;;12.7;;
53674;SDS011;39574;50.534;8.500;2023-02-21T18:20:33;20.5;;;11.5;;
53674;SDS011;39574;50.534;8.500;2023-02-21T18:25:32;16.9;;;9.2;;
53674;SDS011;39574;50.534;8.500;2023-02-21T18:30:31;20.7;;;10.4;;
53674;SDS011;39574;50.534;8.500;2023-02-21T18:35:30;23.6;;;11.6;;
53674;SDS011;39574;50.534;8.500;2023-02-21T18:45:29;25.4;;;12.4;;
53674;SDS011;39574;50.534;8.500;2023-02-21T18:50:27;22.5;;;11.2;;
53674;SDS011;39574;50.534;8.500;2023-02-21T18:55:26;21.1;;;11.7;;
53674;SDS011;39574;50.534;8.500;2023-02-21T19:00:26;20.2;;;12.2;;
53674;SDS011;39574;50.534;8.500;2023-02-21T19:05:25;19.6;;;11.8;;
53674;SDS011;39574;50.534;8.500;2023-02-21T19:10:24;18.8;;;11.6;;
53674;SDS011;39574;50.534;8.500;2023-02-21T19:15:22;18.2;;;10.2;;
53674;SDS011;39574;50.534;8.500;2023-02-21T19:20:21;21.6;;;13.2;;
53674;SDS011;39574;50.534;8.500;2023-02-21T19:25:20;22.2;;;13.7;;
53674;SDS011;39574;50.534;8.500;2023-02-21T19:30:19;18.7;;;11.6;;
53674;SDS011;39574;50.534;8.500;2023-02-21T19:35:18;15.8;;;9.8;;
53674;SDS011;39574;50.534;8.500;2023-02-21T19:40:17;13.8;;;7.9;;
53674;SDS011;39574;50.534;8.500;2023-02-21T19:45:16;12.0;;;7.1;;
53674;SDS011;39574;50.534;8.500;2023-02-21T19:50:15;13.0;;;7.6;;
53674;SDS011;39574;50.534;8.500;2023-02-21T19:55:14;14.1;;;8.3;;
53674;SDS011;39574;50.534;8.500;2023-02-21T20:00:13;15.5;;;9.0;;
53674;SDS011;39574;50.534;8.500;2023-02-21T20:05:12;15.9;;;9.2;;
53674;SDS011;39574;50.534;8.500;2023-02-21T20:10:11;15.8;;;9.4;;
53674;SDS011;39574;50.534;8.500;2023-02-21T20:15:09;15.8;;;9.3;;
53674;SDS011;39574;50.534;8.500;2023-02-21T20:20:09;15.3;;;9.4;;
53674;SDS011;39574;50.534;8.500;2023-02-21T20:25:07;15.8;;;10.0;;
53674;SDS011;39574;50.534;8.500;2023-02-21T20:35:06;16.4;;;10.0;;
53674;SDS011;39574;50.534;8.500;2023-02-21T20:40:05;16.5;;;9.8;;
53674;SDS011;39574;50.534;8.500;2023-02-21T20:45:04;16.8;;;9.7;;
53674;SDS011;39574;50.534;8.500;2023-02-21T20:50:03;16.2;;;9.8;;
53674;SDS011;39574;50.534;8.500;2023-02-21T20:55:02;18.7;;;11.0;;
53674;SDS011;39574;50.534;8.500;2023-02-21T21:00:04;19.2;;;10.7;;
53674;SDS011;39574;50.534;8.500;2023-02-21T21:04:59;17.3;;;10.0;;
53674;SDS011;39574;50.534;8.500;2023-02-21T21:09:59;16.5;;;9.4;;
53674;SDS011;39574;50.534;8.500;2023-02-21T21:14:58;15.2;;;8.8;;
53674;SDS011;39574;50.534;8.500;2023-02-21T21:19:57;16.9;;;9.2;;
53674;SDS011;39574;50.534;8.500;2023-02-21T21:24:56;16.7;;;9.2;;
53674;SDS011;39574;50.534;8.500;2023-02-21T21:29:55;16.4;;;9.3;;
53674;SDS011;39574;50.534;8.500;2023-02-21T21:34:55;15.8;;;9.0;;
53674;SDS011;39574;50.534;8.500;2023-02-21T21:39:53;15.0;;;8.7;;
53674;SDS011;39574;50.534;8.500;2023-02-21T21:44:53;17.4;;;9.8;;
53674;SDS011;39574;50.534;8.500;2023-02-21T21:49:51;18.3;;;9.6;;
53674;SDS011;39574;50.534;8.500;2023-02-21T21:54:49;18.3;;;9.4;;
53674;SDS011;39574;50.534;8.500;2023-02-21T21:59:48;18.0;;;9.5;;
53674;SDS011;39574;50.534;8.500;2023-02-21T22:04:47;16.0;;;8.6;;
53674;SDS011;39574;50.534;8.500;2023-02-21T22:09:46;14.5;;;8.0;;
53674;SDS011;39574;50.534;8.500;2023-02-21T22:14:45;14.0;;;8.1;;
53674;SDS011;39574;50.534;8.500;2023-02-21T22:19:43;13.8;;;8.2;;
53674;SDS011;39574;50.534;8.500;2023-02-21T22:29:41;14.3;;;8.5;;
53674;SDS011;39574;50.534;8.500;2023-02-21T22:34:41;16.4;;;9.2;;
53674;SDS011;39574;50.534;8.500;2023-02-21T22:39:39;15.4;;;8.7;;
53674;SDS011;39574;50.534;8.500;2023-02-21T22:44:38;16.3;;;9.1;;
53674;SDS011;39574;50.534;8.500;2023-02-21T22:49:36;15.5;;;9.0;;
53674;SDS011;39574;50.534;8.500;2023-02-21T22:54:35;16.3;;;9.3;;
53674;SDS011;39574;50.534;8.500;2023-02-21T22:59:35;18.2;;;9.8;;
53674;SDS011;39574;50.534;8.500;2023-02-21T23:04:34;18.1;;;9.7;;
53674;SDS011;39574;50.534;8.500;2023-02-21T23:09:32;17.6;;;9.2;;
53674;SDS011;39574;50.534;8.500;2023-02-21T23:14:32;16.9;;;9.1;;
53674;SDS011;39574;50.534;8.500;2023-02-21T23:19:31;16.7;;;9.0;;
53674;SDS011;39574;50.534;8.500;2023-02-21T23:24:30;15.7;;;9.0;;
53674;SDS011;39574;50.534;8.500;2023-02-21T23:29:28;14.9;;;8.6;;
53674;SDS011;39574;50.534;8.500;2023-02-21T23:34:27;15.4;;;8.7;;
53674;SDS011;39574;50.534;8.500;2023-02-21T23:39:26;16.9;;;9.0;;
53674;SDS011;39574;50.534;8.500;2023-02-21T23:44:25;17.4;;;9.4;;
53674;SDS011;39574;50.534;8.500;2023-02-21T23:49:23;19.6;;;10.7;;
53674;SDS011;39574;50.534;8.500;2023-02-21T23:54:22;20.3;;;10.7;;
53674;SDS011;39574;50.534;8.500;2023-02-21T23:59:21;22.4;;;11.1;;
